Weather station in Munich

Current measurement: 26.1°C and 957.06hPa and 80.09% humidity and 2419ppm CO2
(at 2024-06-21 10:43:33 )

Previous Measurements

Show/Hide
IDdevice_idTemperaturePressureHumidityCO2Timestamp
19037weather8080726.1°C957.06hPa80.09%2419ppm2024-06-21 10:43:33
19036weather8080725.9°C956.81hPa80.42%2424ppm2024-06-21 10:12:47
19035weather8080725.8°C957.02hPa80.44%2436ppm2024-06-21 09:42:03
19034weather8080725.9°C955.51hPa80.59%2464ppm2024-06-21 09:11:17
19033weather8080725.9°C954.99hPa84.3%188ppm2024-06-21 08:40:32
19032weather8080725.9°C954.95hPa80.84%2242ppm2024-06-21 08:25:08
19031weather8080725.9°C954.86hPa80.85%2449ppm2024-06-21 08:09:46
19030weather8080725.8°C955.34hPa80.22%2446ppm2024-06-21 07:39:01
19029weather8080725.8°C955hPa80.38%2446ppm2024-06-21 07:08:15
19028weather8080725.7°C955.42hPa80.19%2461ppm2024-06-21 06:37:30
19027weather8080725.8°C955.67hPa80.22%2440ppm2024-06-21 06:06:44
19026weather8080725.8°C955.95hPa80.39%2456ppm2024-06-21 05:35:57
19025weather8080725.7°C955.97hPa80.22%2426ppm2024-06-21 05:05:11
19024weather8080725.7°C956.11hPa80.27%2477ppm2024-06-21 04:49:48
19023weather8080725.8°C956.18hPa80.35%2500ppm2024-06-21 04:19:05
19022weather8080725.7°C956.57hPa80.48%2505ppm2024-06-21 03:48:21
19021weather8080725.7°C956.95hPa84.53%294ppm2024-06-21 03:17:35
19020weather8080725.8°C957.06hPa84.46%220ppm2024-06-21 03:02:11
19019weather8080725.8°C957.14hPa84.27%219ppm2024-06-21 02:46:48
19018weather8080725.8°C957.26hPa80.38%2501ppm2024-06-21 02:31:26
19017weather8080725.8°C957.24hPa80.36%2529ppm2024-06-21 02:16:03
19016weather8080725.9°C957.65hPa80.56%2549ppm2024-06-21 01:45:20
19015weather8080725.9°C958.1hPa84.64%353ppm2024-06-21 01:14:36
19014weather8080725.9°C958.4hPa84.59%424ppm2024-06-21 00:59:13
19013weather8080725.8°C958.43hPa84.39%412ppm2024-06-21 00:43:50
19012weather8080726°C958.69hPa80.5%2564ppm2024-06-21 00:28:26
19011weather8080726°C958.69hPa80.47%2595ppm2024-06-21 00:13:03
19010weather8080725.9°C958.83hPa80.69%2626ppm2024-06-20 23:42:19
19009weather8080725.9°C958.96hPa84.62%451ppm2024-06-20 23:11:34
19008weather8080725.9°C958.79hPa84.39%414ppm2024-06-20 22:56:12
19007weather8080725.9°C959.07hPa80.53%2685ppm2024-06-20 22:40:49
19006weather8080726°C959.05hPa80.55%2706ppm2024-06-20 22:25:27
19005weather8080726°C958.84hPa80.45%2798ppm2024-06-20 21:54:40
19004weather8080726°C958.57hPa80.42%2766ppm2024-06-20 21:39:17
19003weather8080725.4°C958.12hPa80.4%2768ppm2024-06-20 21:08:33
19002weather8080725.4°C957.98hPa80.51%2769ppm2024-06-20 20:37:49
19001weather8080725.4°C957.8hPa84.54%534ppm2024-06-20 20:07:03
19000weather8080725.4°C957.75hPa84.64%557ppm2024-06-20 19:51:38
18999weather8080725.4°C958.06hPa84.62%532ppm2024-06-20 19:36:14
18998weather8080725.4°C958.17hPa84.52%541ppm2024-06-20 19:20:51
18997weather8080725.4°C958.36hPa84.63%546ppm2024-06-20 19:05:28
18996weather8080725.4°C958.68hPa84.69%553ppm2024-06-20 18:50:05
18995weather8080725.4°C958.8hPa84.67%570ppm2024-06-20 18:34:41
18994weather8080725.4°C958.68hPa84.75%587ppm2024-06-20 18:19:18
18993weather8080725.4°C958.79hPa84.75%588ppm2024-06-20 18:03:54
18992weather8080725.4°C958.63hPa84.72%585ppm2024-06-20 17:48:30
18991weather8080725.4°C959.04hPa84.87%585ppm2024-06-20 17:33:07
18990weather8080725.4°C959.21hPa84.96%574ppm2024-06-20 17:17:43
18989weather8080725.3°C959.3hPa84.8%541ppm2024-06-20 17:02:20
18988weather8080725.3°C959.27hPa84.77%591ppm2024-06-20 16:46:57
18987weather8080725.3°C959.1hPa84.85%562ppm2024-06-20 16:31:33
18986weather8080725.3°C959.9hPa84.86%533ppm2024-06-20 16:16:10
18985weather8080725.3°C960.34hPa84.82%548ppm2024-06-20 16:00:47
18984weather8080725.4°C959.7hPa84.8%552ppm2024-06-20 15:45:24
18983weather8080725.3°C959.27hPa84.72%551ppm2024-06-20 15:30:00
18982weather8080725.4°C958.94hPa84.64%541ppm2024-06-20 15:14:37
18981weather8080725.4°C958.7hPa84.45%542ppm2024-06-20 14:59:14
18980weather8080725.4°C958.64hPa84.71%640ppm2024-06-20 14:43:52
18979weather8080725.4°C958.73hPa84.64%572ppm2024-06-20 14:28:29
18978weather8080725.4°C958.93hPa84.65%585ppm2024-06-20 14:13:05
18977weather8080725.4°C959.11hPa84.72%592ppm2024-06-20 13:57:41
18976weather8080725.4°C959.25hPa84.67%625ppm2024-06-20 13:42:18
18975weather8080725.4°C959.06hPa84.81%628ppm2024-06-20 13:26:55
18974weather8080725.5°C959.24hPa84.9%598ppm2024-06-20 13:11:32
18973weather8080725.5°C959.43hPa84.84%627ppm2024-06-20 12:56:08
18972weather8080725.6°C959.62hPa84.59%379ppm2024-06-20 12:40:43
18971weather8080725.6°C959.53hPa84.38%437ppm2024-06-20 12:25:21
18970weather8080725.5°C959.5hPa83.79%306ppm2024-06-20 12:09:57
18969weather8080725.7°C959.55hPa83.45%255ppm2024-06-20 11:54:33
18968weather8080725.6°C959.55hPa83.59%251ppm2024-06-20 11:39:10
18967weather8080725.5°C959.67hPa79.58%2284ppm2024-06-20 11:23:47
18966weather8080725.7°C959.79hPa79.55%2323ppm2024-06-20 11:08:23
18965weather8080725.4°C959.65hPa83.6%207ppm2024-06-20 10:37:39
18964weather8080725.5°C959.75hPa83.22%219ppm2024-06-20 10:22:16
18963weather8080725.1°C959.87hPa82.77%196ppm2024-06-20 10:06:54
18962weather8080725.2°C959.85hPa78.97%2222ppm2024-06-20 09:51:30
18961weather8080725.3°C959.88hPa78.99%2294ppm2024-06-20 09:36:07
18960weather8080724.6°C959.5hPa78.45%2285ppm2024-06-20 09:05:24
18959weather8080724.7°C959.48hPa77.76%2325ppm2024-06-20 08:34:38
18958weather8080725°C959.6hPa77.65%2276ppm2024-06-20 08:03:54
18957weather8080724.9°C959.95hPa77.92%2025ppm2024-06-20 07:33:09
18956weather8080724.9°C960.07hPa77.9%2333ppm2024-06-20 07:17:46
18955weather8080724.8°C960.54hPa78.14%2006ppm2024-06-20 06:47:02
18954weather8080724.9°C960.42hPa78.09%2271ppm2024-06-20 06:31:40
18953weather8080724.9°C960.39hPa78.53%2313ppm2024-06-20 06:00:57
18952weather8080724.9°C960.44hPa82.54%69ppm2024-06-20 05:30:10
18951weather8080724.9°C960.42hPa82.35%78ppm2024-06-20 05:14:48
18950weather8080724.9°C960.1hPa78.83%2280ppm2024-06-20 04:59:25
18949weather8080724.9°C960.2hPa78.81%2364ppm2024-06-20 04:44:02
18948weather8080724.9°C959.86hPa83.23%157ppm2024-06-20 04:13:19
18947weather8080724.9°C959.84hPa83.07%146ppm2024-06-20 03:57:56
18946weather8080724.9°C959.7hPa83.48%162ppm2024-06-20 03:42:31
18945weather8080724.9°C959.94hPa83.91%115ppm2024-06-20 03:27:08
18944weather8080724.9°C959.86hPa84.03%225ppm2024-06-20 03:11:44
18943weather8080724.9°C959.78hPa84.22%218ppm2024-06-20 02:56:20
18942weather8080724.9°C959.78hPa84.89%212ppm2024-06-20 02:40:57
18941weather8080724.9°C959.32hPa84.87%264ppm2024-06-20 02:25:34
18940weather8080724.9°C959.37hPa84.94%276ppm2024-06-20 02:10:11
18939weather8080724.9°C959.44hPa85.15%301ppm2024-06-20 01:54:48
18938weather8080724.9°C959.41hPa85.18%325ppm2024-06-20 01:39:25
18937weather8080724.9°C959.51hPa85.12%303ppm2024-06-20 01:24:01
18936weather8080724.9°C959.51hPa85.11%282ppm2024-06-20 01:08:38
18935weather8080724.9°C959.48hPa85.01%309ppm2024-06-20 00:53:15
18934weather8080724.9°C959.15hPa85.07%328ppm2024-06-20 00:37:52
18933weather8080725°C959.29hPa84.87%420ppm2024-06-20 00:22:28
18932weather8080725°C959.23hPa80.93%2695ppm2024-06-20 00:07:06
18931weather8080725°C959.26hPa80.9%2731ppm2024-06-19 23:51:44
18930weather8080725°C959.24hPa80.94%2854ppm2024-06-19 23:20:59
18929weather8080724.7°C959.11hPa81.03%2968ppm2024-06-19 22:50:15
18928weather8080725°C958.68hPa81%3100ppm2024-06-19 22:20:09
18927weather8080725°C958.68hPa80.54%3000ppm2024-06-19 21:48:56
18926weather8080724.9°C958.24hPa83.98%473ppm2024-06-19 21:18:12
18925weather8080724.9°C957.93hPa83.9%519ppm2024-06-19 21:02:47
18924weather8080725°C957.58hPa83.95%548ppm2024-06-19 20:47:24
18923weather8080724.9°C957.48hPa84.08%524ppm2024-06-19 20:32:01
18922weather8080724.9°C957.11hPa84.27%583ppm2024-06-19 20:16:39
18921weather8080724.9°C956.83hPa84.35%698ppm2024-06-19 20:01:15
18920weather8080724.9°C956.68hPa84.4%852ppm2024-06-19 19:45:53
18919weather8080724.9°C956.45hPa84.29%842ppm2024-06-19 19:30:28
18918weather8080725°C956.22hPa84.35%1058ppm2024-06-19 19:15:04
18917weather8080725°C956.09hPa84.48%1257ppm2024-06-19 18:59:41
18916weather8080724.9°C955.82hPa84.51%1363ppm2024-06-19 18:44:17
18915weather8080725°C955.71hPa84.57%1696ppm2024-06-19 18:28:53
18914weather8080725°C955.69hPa84.51%1783ppm2024-06-19 18:13:29
18913weather8080724.9°C955.42hPa84.69%2035ppm2024-06-19 17:58:07
18912weather8080725°C955.29hPa84.72%1944ppm2024-06-19 17:42:44
18911weather8080724.9°C955.23hPa84.43%1545ppm2024-06-19 17:27:20
18910weather8080725°C955.22hPa83.92%927ppm2024-06-19 17:11:57
18909weather8080725°C955.02hPa83.7%1032ppm2024-06-19 16:56:33
18908weather8080725.3°C955.1hPa83.52%1012ppm2024-06-19 16:41:11
18907weather8080725.2°C955.1hPa79.6%3190ppm2024-06-19 16:25:47
18906weather8080725.3°C955.08hPa79.57%3524ppm2024-06-19 16:10:24
18905weather8080724.8°C955.2hPa79.93%3427ppm2024-06-19 15:39:40
18904weather8080725.1°C955.32hPa79.5%3117ppm2024-06-19 15:09:31
18903weather8080724.8°C955.23hPa79.22%2792ppm2024-06-19 14:38:16
18902weather8080724.7°C955.25hPa79.16%2669ppm2024-06-19 14:10:33
18901weather8080724.7°C955.41hPa79.19%2673ppm2024-06-19 13:36:55
18900weather8080724.7°C955.36hPa79.31%2701ppm2024-06-19 13:06:09
18899weather8080724.7°C955.26hPa83.04%467ppm2024-06-19 12:35:23
18898weather8080724.6°C955.34hPa79.31%2580ppm2024-06-19 12:19:59
18897weather8080725.2°C955.29hPa79.24%2624ppm2024-06-19 12:04:36
18896weather8080725.2°C955.37hPa79.06%2597ppm2024-06-19 11:33:51
18895weather8080725°C955.43hPa78.88%2556ppm2024-06-19 11:03:07
18894weather8080725.1°C955.36hPa78.67%2573ppm2024-06-19 10:32:58
18893weather8080725°C955.33hPa79.08%2569ppm2024-06-19 10:01:45
18892weather8080724.8°C955.67hPa78.9%2492ppm2024-06-19 09:31:00
18891weather8080724.7°C955.84hPa78.89%2577ppm2024-06-19 09:15:36
18890weather8080724.6°C955.77hPa78.93%2565ppm2024-06-19 08:44:52
18889weather8080724.4°C955.5hPa79.12%2587ppm2024-06-19 08:14:06
18888weather8080724.6°C955.48hPa78.66%2563ppm2024-06-19 07:43:20
18887weather8080724.5°C955.23hPa78.66%2596ppm2024-06-19 07:27:27
18886weather8080724.5°C955.14hPa78.62%2521ppm2024-06-19 06:56:42
18885weather8080724.3°C954.85hPa82.71%433ppm2024-06-19 06:25:57
18884weather8080724.3°C954.7hPa82.61%488ppm2024-06-19 06:10:33
18883weather8080724.3°C954.69hPa82.54%459ppm2024-06-19 05:55:11
18882weather8080724.3°C954.5hPa78.72%2637ppm2024-06-19 05:39:47
18881weather8080724.3°C954.44hPa78.69%2603ppm2024-06-19 05:24:25
18880weather8080724.3°C954.27hPa78.93%2655ppm2024-06-19 04:53:39
18879weather8080724.3°C954.12hPa79.06%2689ppm2024-06-19 04:22:55
18878weather8080724.3°C953.97hPa79.18%2749ppm2024-06-19 03:52:10
18877weather8080724.4°C954.07hPa79.37%2799ppm2024-06-19 03:21:27
18876weather8080724.3°C953.96hPa79.35%2861ppm2024-06-19 02:50:41
18875weather8080724.2°C953.6hPa79.51%2952ppm2024-06-19 02:19:56
18874weather8080724.3°C953.44hPa79.7%3030ppm2024-06-19 01:49:12
18873weather8080724.2°C953.26hPa83.59%853ppm2024-06-19 01:18:27
18872weather8080724.2°C953.18hPa79.75%3264ppm2024-06-19 01:03:04
18871weather8080724.2°C953.37hPa79.81%3229ppm2024-06-19 00:47:41
18870weather8080724.1°C953.42hPa83.96%992ppm2024-06-19 00:16:55
18869weather8080724.1°C953.37hPa83.88%1007ppm2024-06-19 00:01:32
18868weather8080724.1°C953.38hPa83.94%980ppm2024-06-18 23:46:09
18867weather8080724.1°C953.46hPa83.84%1039ppm2024-06-18 23:30:45
18866weather8080724.1°C953.55hPa79.77%3172ppm2024-06-18 23:15:21
18865weather8080724.2°C953.75hPa79.75%3362ppm2024-06-18 22:59:58
18864weather8080724.2°C953.86hPa79.75%3396ppm2024-06-18 22:29:14
18863weather8080724.2°C953.95hPa79.58%3493ppm2024-06-18 21:58:29
18862weather8080724.1°C953.74hPa77.83%3124ppm2024-06-18 21:27:43
18861weather8080724.2°C953.77hPa77.82%3051ppm2024-06-18 21:12:20
18860weather8080724.1°C953.56hPa77.09%2356ppm2024-06-18 20:41:36
18859weather8080724.1°C953.68hPa76.81%2291ppm2024-06-18 20:10:53
18858weather8080724.1°C953.65hPa76.7%2309ppm2024-06-18 19:40:07
18857weather8080724.2°C953.7hPa76.55%2330ppm2024-06-18 19:09:23
18856weather8080724.2°C953.75hPa76.32%2053ppm2024-06-18 18:38:37
18855weather8080724.1°C953.92hPa76.35%2319ppm2024-06-18 18:23:15
18854weather8080724.1°C953.93hPa76.4%2358ppm2024-06-18 17:52:31
18853weather8080724.3°C954.15hPa76.62%2389ppm2024-06-18 17:21:46
18852weather8080724.2°C954.31hPa76.6%2391ppm2024-06-18 16:51:02
18851weather8080724.2°C954.69hPa76.67%2424ppm2024-06-18 16:20:17
18850weather8080724.1°C954.88hPa77.31%2473ppm2024-06-18 15:49:31
18849weather8080724.2°C955.09hPa77.41%2523ppm2024-06-18 15:18:48
18848weather8080724.3°C955.4hPa81.22%315ppm2024-06-18 14:48:02
18847weather8080724.1°C955.37hPa81.53%304ppm2024-06-18 14:32:39
18846weather8080724.1°C955.62hPa81.7%334ppm2024-06-18 14:17:16
18845weather8080724.1°C955.86hPa77.12%2375ppm2024-06-18 14:01:52
18844weather8080724.1°C955.93hPa77.06%2377ppm2024-06-18 13:46:29
18843weather8080724.1°C956.03hPa77.01%2354ppm2024-06-18 13:15:45
18842weather8080724°C956.25hPa78.14%2465ppm2024-06-18 12:44:59
18841weather8080724°C956.35hPa78.23%2539ppm2024-06-18 12:14:13
18840weather8080723.9°C956.51hPa77.37%2522ppm2024-06-18 11:43:27
18839weather8080723.9°C956.63hPa77.29%2457ppm2024-06-18 11:28:04
18838weather8080723.8°C956.68hPa76.36%2417ppm2024-06-18 10:57:20
18837weather8080723.7°C957.05hPa79.93%253ppm2024-06-18 10:26:35
18836weather8080723.6°C957.15hPa76.64%2369ppm2024-06-18 10:11:11
18835weather8080723.5°C957.21hPa76.55%2359ppm2024-06-18 09:55:48
18834weather8080723.4°C957.24hPa76.87%2389ppm2024-06-18 09:25:02
18833weather8080723.2°C957.34hPa77.23%2418ppm2024-06-18 08:54:16
18832weather8080723.2°C957.43hPa80.78%324ppm2024-06-18 08:23:31
18831weather8080723.3°C957.41hPa80.7%285ppm2024-06-18 08:08:08
18830weather8080723.3°C957.36hPa80.68%276ppm2024-06-18 07:52:45
18829weather8080723.3°C957.23hPa77.01%2539ppm2024-06-18 07:37:23
18828weather8080723.3°C957.26hPa77%2441ppm2024-06-18 07:22:00
18827weather8080723.1°C957.21hPa81.02%365ppm2024-06-18 06:51:15
18826weather8080723.1°C957.21hPa81.09%366ppm2024-06-18 06:35:52
18825weather8080723°C957.23hPa81.16%377ppm2024-06-18 06:20:29
18824weather8080722.9°C957.65hPa81.15%334ppm2024-06-18 06:05:07
18823weather8080723°C957.34hPa81.19%361ppm2024-06-18 05:49:44
18822weather8080723°C957.22hPa81.07%340ppm2024-06-18 05:34:21
18821weather8080723°C957.54hPa77.27%2439ppm2024-06-18 05:18:58
18820weather8080723°C957.4hPa77.28%2481ppm2024-06-18 05:03:34
18819weather8080722.9°C957.3hPa77.39%2542ppm2024-06-18 04:32:49
18818weather8080723°C957.32hPa77.43%2356ppm2024-06-18 04:02:03
18817weather8080723°C957.38hPa77.41%2591ppm2024-06-18 03:46:40
18816weather8080723°C957.75hPa77.48%2649ppm2024-06-18 03:15:54
18815weather8080723°C958.11hPa77.53%2706ppm2024-06-18 02:45:09
18814weather8080723.1°C958.16hPa77.56%2740ppm2024-06-18 02:14:25
18813weather8080723°C958.27hPa81.71%687ppm2024-06-18 01:43:39
18812weather8080723.1°C958.48hPa81.78%728ppm2024-06-18 01:28:16
18811weather8080723.1°C958.55hPa81.8%771ppm2024-06-18 01:12:53
18810weather8080723.1°C958.65hPa81.77%744ppm2024-06-18 00:57:29
18809weather8080723°C958.52hPa81.83%782ppm2024-06-18 00:42:06
18808weather8080723.1°C958.61hPa81.78%799ppm2024-06-18 00:26:42
18807weather8080723.2°C958.54hPa81.77%828ppm2024-06-18 00:11:19
18806weather8080723.3°C958.27hPa81.71%808ppm2024-06-17 23:55:56
18805weather8080723.3°C957.71hPa81.86%902ppm2024-06-17 23:40:32
18804weather8080723.1°C957.54hPa81.82%784ppm2024-06-17 23:25:09
18803weather8080723.1°C957.65hPa81.92%875ppm2024-06-17 23:09:45
18802weather8080723.1°C957.65hPa81.98%879ppm2024-06-17 22:54:21
18801weather8080723.1°C958.42hPa81.8%963ppm2024-06-17 22:38:57
18800weather8080723.1°C959.34hPa81.72%881ppm2024-06-17 22:23:35
18799weather8080723.1°C958.97hPa77.95%3139ppm2024-06-17 22:08:11
18798weather8080723.1°C958.55hPa77.97%3170ppm2024-06-17 21:52:48
18797weather8080723.1°C957.47hPa82.24%880ppm2024-06-17 21:22:04
18796weather8080723.1°C957.32hPa82.17%933ppm2024-06-17 21:06:40
18795weather8080723.1°C956.94hPa82.11%960ppm2024-06-17 20:51:17
18794weather8080723.1°C956.85hPa82.13%950ppm2024-06-17 20:35:54
18793weather8080723.2°C956.62hPa81.93%945ppm2024-06-17 20:20:31
18792weather8080723.2°C956.65hPa78.04%3279ppm2024-06-17 20:05:08
18791weather8080723.3°C956.51hPa78.03%3248ppm2024-06-17 19:49:45
18790weather8080723.2°C956.34hPa81.65%796ppm2024-06-17 19:19:00
18789weather8080723.3°C956.14hPa81.61%808ppm2024-06-17 19:03:38
18788weather8080723.3°C955.96hPa81.51%877ppm2024-06-17 18:48:14
18787weather8080723.3°C955.86hPa81.11%782ppm2024-06-17 18:32:51
18786weather8080723.3°C955.43hPa81.24%694ppm2024-06-17 18:17:27
18785weather8080723.2°C955.69hPa81.3%751ppm2024-06-17 18:02:03
18784weather8080723.3°C956.22hPa81.52%731ppm2024-06-17 17:46:39
18783weather8080723.1°C956.2hPa81.17%720ppm2024-06-17 17:31:16
18782weather8080723.2°C955.65hPa81.48%683ppm2024-06-17 17:15:53
18781weather8080723.2°C955.48hPa81.79%976ppm2024-06-17 17:00:30
18780weather8080723.2°C955.59hPa77.18%2962ppm2024-06-17 16:45:08
18779weather8080723.2°C955.44hPa77.22%3002ppm2024-06-17 16:29:44
18778weather8080723.2°C955.39hPa77.17%2412ppm2024-06-17 15:58:59
18777weather8080723.2°C955.43hPa77.22%2435ppm2024-06-17 15:28:16
18776weather8080723.1°C955.36hPa77.43%2448ppm2024-06-17 14:57:30
18775weather8080723.1°C955.48hPa77.33%2424ppm2024-06-17 14:26:46
18774weather8080723.1°C955.77hPa78.08%2467ppm2024-06-17 13:56:01
18773weather8080723°C955.91hPa77.52%2524ppm2024-06-17 13:25:16
18772weather8080723°C955.97hPa78.09%2474ppm2024-06-17 12:54:31
18771weather8080723°C956.1hPa81.9%435ppm2024-06-17 12:23:45
18770weather8080723°C956.04hPa81.5%482ppm2024-06-17 12:08:23
18769weather8080723°C956.07hPa81.41%461ppm2024-06-17 11:53:00
18768weather8080722.9°C956.11hPa81.97%404ppm2024-06-17 11:37:37
18767weather8080722.9°C956.06hPa77.86%2294ppm2024-06-17 11:22:14
18766weather8080722.9°C956.02hPa77.86%2463ppm2024-06-17 11:06:51
18765weather8080722.7°C956.13hPa78.86%2602ppm2024-06-17 10:36:07
18764weather8080723.6°C956.01hPa91.12%3147ppm2024-06-17 10:05:24
18763weather8080722.7°C956.05hPa82.52%344ppm2024-06-17 09:45:46
18762weather8080722.9°C955.97hPa81.72%336ppm2024-06-17 09:30:22
18761weather8080722.9°C956.01hPa81.1%308ppm2024-06-17 09:14:58
18760weather8080722.8°C955.92hPa77.15%2442ppm2024-06-17 08:59:35
18759weather8080722.8°C955.8hPa77.14%2352ppm2024-06-17 08:44:13
18758weather8080722.7°C955.75hPa77.76%2390ppm2024-06-17 08:13:29
18757weather8080722.6°C955.76hPa81.84%250ppm2024-06-17 07:42:43
18756weather8080722.6°C955.54hPa81.5%246ppm2024-06-17 07:27:21
18755weather8080722.6°C955.38hPa81.58%194ppm2024-06-17 07:11:58
18754weather8080722.4°C955.37hPa81.86%176ppm2024-06-17 06:56:34
18753weather8080722.4°C955.39hPa81.96%164ppm2024-06-17 06:41:10
18752weather8080722.4°C955.32hPa81.78%176ppm2024-06-17 06:25:47
18751weather8080722.4°C955.44hPa81.81%184ppm2024-06-17 06:10:24
18750weather8080722.4°C955.5hPa81.87%137ppm2024-06-17 05:55:01
18749weather8080722.4°C955.3hPa81.94%173ppm2024-06-17 05:39:37
18748weather8080722.4°C955.17hPa81.96%182ppm2024-06-17 05:24:15
18747weather8080722.4°C955.12hPa81.98%153ppm2024-06-17 05:08:52
18746weather8080722.4°C955.15hPa81.94%175ppm2024-06-17 04:53:29
18745weather8080722.4°C954.98hPa81.9%221ppm2024-06-17 04:38:07
18744weather8080722.4°C954.96hPa81.72%161ppm2024-06-17 04:22:44
18743weather8080722.5°C954.98hPa77.43%2010ppm2024-06-17 04:07:20
18742weather8080722.5°C954.92hPa77.41%2281ppm2024-06-17 03:51:58
18741weather8080722.5°C954.93hPa77.55%2283ppm2024-06-17 03:21:13
18740weather8080722.5°C954.91hPa81.64%179ppm2024-06-17 02:50:28
18739weather8080722.4°C954.81hPa77.57%2312ppm2024-06-17 02:35:06
18738weather8080722.5°C954.61hPa77.56%2312ppm2024-06-17 02:19:44
18737weather8080722.5°C954.44hPa81.7%215ppm2024-06-17 01:49:00
18736weather8080722.5°C954.46hPa77.83%2289ppm2024-06-17 01:33:37
18735weather8080722.5°C954.4hPa77.81%2326ppm2024-06-17 01:18:14
18734weather8080722.5°C954.52hPa78.32%2398ppm2024-06-17 00:47:27
18733weather8080722.6°C954.35hPa78.31%2399ppm2024-06-17 00:32:04
18732weather8080722.5°C954.25hPa82.88%326ppm2024-06-17 00:01:20
18731weather8080722.6°C954.1hPa83.1%341ppm2024-06-16 23:45:56
18730weather8080722.5°C954.03hPa83.14%372ppm2024-06-16 23:30:32
18729weather8080722.6°C953.99hPa82.97%442ppm2024-06-16 23:15:10
18728weather8080722.6°C953.84hPa83%446ppm2024-06-16 22:59:47
18727weather8080722.6°C953.68hPa83.05%486ppm2024-06-16 22:44:24
18726weather8080722.6°C953.48hPa83.1%534ppm2024-06-16 22:29:00
18725weather8080722.6°C953.26hPa83.18%494ppm2024-06-16 22:13:37
18724weather8080722.6°C953.12hPa83.31%592ppm2024-06-16 21:58:14
18723weather8080722.7°C952.95hPa83.29%733ppm2024-06-16 21:42:50
18722weather8080722.7°C952.7hPa82.14%760ppm2024-06-16 21:27:26
18721weather8080722.7°C952.58hPa77.53%2806ppm2024-06-16 21:12:02
18720weather8080722.8°C952.47hPa77.55%3102ppm2024-06-16 20:56:40
18719weather8080722.9°C952.2hPa80.61%718ppm2024-06-16 20:25:55
18718weather8080723°C951.95hPa79.16%587ppm2024-06-16 20:10:31
18717weather8080723°C951.91hPa79.18%569ppm2024-06-16 19:55:08
18716weather8080722.9°C951.78hPa78.55%371ppm2024-06-16 19:39:45
18715weather8080722.9°C951.84hPa78.06%376ppm2024-06-16 19:24:22
18714weather8080722.8°C951.83hPa77.7%296ppm2024-06-16 19:08:59
18713weather8080722.7°C951.65hPa73.52%2469ppm2024-06-16 18:53:35
18712weather8080722.7°C951.62hPa73.53%2378ppm2024-06-16 18:38:12
18711weather8080722.7°C951.5hPa72.99%2310ppm2024-06-16 18:07:27
18710weather8080722.7°C951.32hPa73.15%2330ppm2024-06-16 17:36:42
18709weather8080722.8°C951.5hPa73.27%2379ppm2024-06-16 17:05:57
18708weather8080722.7°C951.62hPa73.61%2456ppm2024-06-16 16:35:13
18707weather8080722.8°C951.82hPa73.94%2573ppm2024-06-16 16:04:28
18706weather8080722.8°C951.91hPa74.42%2789ppm2024-06-16 15:33:45
18705weather8080722.8°C952.06hPa74.96%2829ppm2024-06-16 15:02:59
18704weather8080722.8°C952.27hPa78.65%498ppm2024-06-16 14:32:14
18703weather8080722.8°C952.21hPa78.95%497ppm2024-06-16 14:16:51
18702weather8080722.7°C952.28hPa75.44%2769ppm2024-06-16 14:01:28
18701weather8080722.6°C952.39hPa75.46%2819ppm2024-06-16 13:46:05
18700weather8080722.6°C952.64hPa74.27%2738ppm2024-06-16 13:15:21
18699weather8080722.5°C952.88hPa77.71%363ppm2024-06-16 12:44:36
18698weather8080722.5°C953.02hPa76.76%216ppm2024-06-16 12:29:11
18697weather8080722.7°C953.12hPa76.77%184ppm2024-06-16 12:13:48
18696weather8080722.7°C953.15hPa76.62%159ppm2024-06-16 11:58:25
18695weather8080722.6°C953.33hPa76.28%182ppm2024-06-16 11:43:00
18694weather8080722.7°C953.36hPa77.65%209ppm2024-06-16 11:27:36
18693weather8080722.7°C953.41hPa73.77%2458ppm2024-06-16 11:12:13
18692weather8080722.6°C953.42hPa73.72%2426ppm2024-06-16 10:56:50
18691weather8080722.5°C953.71hPa75.43%2433ppm2024-06-16 10:26:07
18690weather8080722.5°C953.66hPa79.64%261ppm2024-06-16 09:55:20
18689weather8080722.5°C953.65hPa79.69%289ppm2024-06-16 09:39:56
18688weather8080722.4°C953.76hPa79.73%297ppm2024-06-16 09:24:34
18687weather8080722.4°C953.74hPa79.77%282ppm2024-06-16 09:09:11
18686weather8080722.3°C953.68hPa79.95%273ppm2024-06-16 08:53:46
18685weather8080722.3°C953.57hPa79.96%312ppm2024-06-16 08:38:23
18684weather8080722.2°C953.53hPa80%318ppm2024-06-16 08:22:59
18683weather8080722.2°C953.26hPa80.05%341ppm2024-06-16 08:07:35
18682weather8080722.1°C953.34hPa80.08%298ppm2024-06-16 07:52:11
18681weather8080722.2°C953.48hPa80.18%320ppm2024-06-16 07:36:46
18680weather8080722°C953.43hPa80.13%282ppm2024-06-16 07:21:22
18679weather8080722.2°C953.38hPa80.11%276ppm2024-06-16 07:05:57
18678weather8080722.1°C953.38hPa76.18%2407ppm2024-06-16 06:50:35
18677weather8080722.1°C953.43hPa76.19%2399ppm2024-06-16 06:35:12
18676weather8080722.1°C953.44hPa76.26%2408ppm2024-06-16 06:04:27
18675weather8080722.1°C953.39hPa76.39%2425ppm2024-06-16 05:33:42
18674weather8080722.1°C953.44hPa76.48%2447ppm2024-06-16 05:02:58
18673weather8080722.1°C953.09hPa80.63%334ppm2024-06-16 04:32:13
18672weather8080722.1°C953hPa80.7%325ppm2024-06-16 04:16:49
18671weather8080722.1°C953.25hPa80.71%324ppm2024-06-16 04:01:26
18670weather8080722.1°C953.35hPa80.63%317ppm2024-06-16 03:46:03
18669weather8080722.2°C953.42hPa80.65%331ppm2024-06-16 03:30:39
18668weather8080722.1°C953.44hPa80.69%269ppm2024-06-16 03:15:16
18667weather8080722.2°C953.38hPa80.56%307ppm2024-06-16 02:59:54
18666weather8080722.2°C953.43hPa76.61%2470ppm2024-06-16 02:44:29
18665weather8080722.2°C953.4hPa76.6%2457ppm2024-06-16 02:29:07
18664weather8080722.2°C953.38hPa80.67%303ppm2024-06-16 01:58:21
18663weather8080722.2°C953.47hPa76.68%2543ppm2024-06-16 01:42:58
18662weather8080722.2°C953.52hPa76.67%2478ppm2024-06-16 01:27:36
18661weather8080722.2°C953.52hPa80.91%322ppm2024-06-16 00:56:51
18660weather8080722.3°C953.38hPa80.76%340ppm2024-06-16 00:41:27
18659weather8080722.3°C953.56hPa76.62%2527ppm2024-06-16 00:26:03
18658weather8080722.2°C953.49hPa76.66%2451ppm2024-06-16 00:10:40
18657weather8080722.2°C953.28hPa76.91%2463ppm2024-06-15 23:39:56
18656weather8080722.3°C953.4hPa77.3%2458ppm2024-06-15 23:09:11
18655weather8080722.1°C953.09hPa76.78%2258ppm2024-06-15 22:38:26
18654weather8080722.1°C952.71hPa76.63%2274ppm2024-06-15 22:07:41
18653weather8080722.3°C952.29hPa76.58%2311ppm2024-06-15 21:36:55
18652weather8080722.2°C952.1hPa80.54%255ppm2024-06-15 21:06:13
18651weather8080722.3°C951.92hPa80.47%287ppm2024-06-15 20:50:47
18650weather8080722.3°C951.9hPa80.33%323ppm2024-06-15 20:35:23
18649weather8080722.4°C951.75hPa80.16%305ppm2024-06-15 20:20:00
18648weather8080722.5°C951.58hPa79.96%367ppm2024-06-15 20:04:36
18647weather8080722.5°C951.44hPa79.97%430ppm2024-06-15 19:49:17
18646weather8080722.6°C951.59hPa79.5%466ppm2024-06-15 19:33:50
18645weather8080722.8°C951.69hPa74.69%2665ppm2024-06-15 19:18:29
18644weather8080722.7°C951.66hPa74.7%2673ppm2024-06-15 19:03:03
18643weather8080722.8°C951.46hPa74.64%2725ppm2024-06-15 18:32:28
18642weather8080722.6°C951.84hPa74.37%2600ppm2024-06-15 18:01:34
18641weather8080722.7°C951.72hPa78.63%408ppm2024-06-15 17:30:49
18640weather8080722.7°C951.79hPa72.88%2587ppm2024-06-15 17:15:26
18639weather8080722.8°C951.34hPa72.83%2586ppm2024-06-15 17:00:03
18638weather8080722.7°C952.01hPa70.94%2335ppm2024-06-15 16:29:19
18637weather8080722.9°C951.94hPa69.99%2163ppm2024-06-15 15:58:35
18636weather8080722.7°C952.07hPa70.63%2185ppm2024-06-15 15:27:50
18635weather8080722.8°C952.07hPa70.76%2184ppm2024-06-15 14:57:03
18634weather8080722.7°C952.11hPa70.27%2197ppm2024-06-15 14:26:18
18633weather8080722.6°C952.41hPa70.73%2315ppm2024-06-15 13:55:33
18632weather8080722.2°C952.58hPa70.75%2167ppm2024-06-15 13:40:09
18631weather8080722.2°C952.87hPa69.99%2162ppm2024-06-15 13:09:25
18630weather8080721.8°C952.74hPa70.15%2180ppm2024-06-15 12:38:39
18629weather8080721.7°C952.85hPa72.81%2181ppm2024-06-15 12:07:53
18628weather8080721.9°C952.69hPa79.97%187ppm2024-06-15 11:37:09
18627weather8080722°C952.54hPa76.35%2373ppm2024-06-15 11:21:46
18626weather8080722.1°C952.52hPa76.35%2409ppm2024-06-15 11:06:23
18625weather8080722.1°C952.35hPa80.81%409ppm2024-06-15 10:35:40
18624weather8080722°C952.33hPa81.32%409ppm2024-06-15 10:20:16
18623weather8080722°C952.54hPa81.83%550ppm2024-06-15 10:04:53
18622weather8080722°C952.09hPa84.4%799ppm2024-06-15 09:49:29
18621weather8080722.1°C952.38hPa80.94%903ppm2024-06-15 09:34:06
18620weather8080722.1°C952.47hPa75.68%2615ppm2024-06-15 09:18:42
18619weather8080722.1°C952.5hPa75.69%2641ppm2024-06-15 09:03:18
18618weather8080722.1°C952.09hPa75.28%2317ppm2024-06-15 08:32:32
18617weather8080722.1°C950.87hPa74.76%2322ppm2024-06-15 08:01:47
18616weather8080722°C949.35hPa79.25%223ppm2024-06-15 07:31:00
18615weather8080722°C949.12hPa79.34%217ppm2024-06-15 07:15:37
18614weather8080722°C947.8hPa79.34%253ppm2024-06-15 07:00:14
18613weather8080722°C947.71hPa79.42%252ppm2024-06-15 06:44:50
18612weather8080722°C947.51hPa79.48%231ppm2024-06-15 06:29:27
18611weather8080722°C947.3hPa79.56%244ppm2024-06-15 06:14:03
18610weather8080722°C947.46hPa79.52%276ppm2024-06-15 05:58:39
18609weather8080722°C947.4hPa75.78%1995ppm2024-06-15 05:43:17
18608weather8080722°C947.49hPa75.78%2318ppm2024-06-15 05:27:54
18607weather8080722°C947.9hPa79.84%280ppm2024-06-15 04:57:10
18606weather8080722°C948.08hPa79.83%271ppm2024-06-15 04:41:46
18605weather8080722°C948.37hPa79.84%249ppm2024-06-15 04:26:22
18604weather8080722°C948.69hPa79.84%245ppm2024-06-15 04:10:59
18603weather8080722°C948.66hPa79.86%246ppm2024-06-15 03:55:36
18602weather8080722.1°C948.89hPa79.86%243ppm2024-06-15 03:40:12
18601weather8080722.1°C949.32hPa79.9%221ppm2024-06-15 03:24:48
18600weather8080722.1°C949.79hPa79.9%304ppm2024-06-15 03:09:25
18599weather8080722.1°C949.95hPa79.88%263ppm2024-06-15 02:54:02
18598weather8080722.1°C950.23hPa79.9%251ppm2024-06-15 02:38:39
18597weather8080722.1°C950.32hPa79.89%266ppm2024-06-15 02:23:17
18596weather8080722.1°C950.65hPa79.9%284ppm2024-06-15 02:07:54
18595weather8080722.2°C950.61hPa79.92%307ppm2024-06-15 01:52:31
18594weather8080722.1°C950.93hPa79.96%365ppm2024-06-15 01:37:08
18593weather8080722.2°C951.22hPa79.92%337ppm2024-06-15 01:21:46
18592weather8080722.2°C951.46hPa79.92%322ppm2024-06-15 01:06:23
18591weather8080722.2°C951.71hPa79.97%344ppm2024-06-15 00:51:00
18590weather8080722.2°C951.82hPa79.97%403ppm2024-06-15 00:35:36
18589weather8080722.2°C951.96hPa79.97%452ppm2024-06-15 00:20:12
18588weather8080722.2°C951.96hPa79.99%443ppm2024-06-15 00:04:49
18587weather8080722.2°C952.14hPa80.06%484ppm2024-06-14 23:49:27
18586weather8080722.2°C952.4hPa80.08%434ppm2024-06-14 23:34:04
18585weather8080721.9°C952.41hPa79.28%313ppm2024-06-14 23:18:40
18584weather8080722°C952.86hPa79.39%352ppm2024-06-14 23:03:17
18583weather8080721.9°C952.98hPa79.63%526ppm2024-06-14 22:47:54
18582weather8080722.1°C952.99hPa80.35%839ppm2024-06-14 22:32:31
18581weather8080722.4°C953.02hPa76.51%3389ppm2024-06-14 22:17:08
18580weather8080722.5°C953.09hPa76.47%3325ppm2024-06-14 22:01:45
18579weather8080722.4°C953.17hPa76.33%3136ppm2024-06-14 21:30:59
18578weather8080722.1°C953.02hPa75.43%2871ppm2024-06-14 21:00:13
18577weather8080722.3°C952.97hPa78.93%556ppm2024-06-14 20:29:29
18576weather8080722.3°C952.93hPa74.81%2676ppm2024-06-14 20:14:06
18575weather8080722.2°C953.13hPa74.8%2728ppm2024-06-14 19:58:44
18574weather8080722.2°C953.18hPa75.16%2810ppm2024-06-14 19:27:59
18573weather8080722.3°C953.5hPa77.49%324ppm2024-06-14 18:57:14
18572weather8080722.2°C953.52hPa77.62%404ppm2024-06-14 18:41:51
18571weather8080722.2°C953.63hPa77.75%438ppm2024-06-14 18:26:27
18570weather8080722.2°C953.68hPa74.14%2835ppm2024-06-14 18:11:04
18569weather8080722.3°C953.57hPa74.16%2806ppm2024-06-14 17:55:42
18568weather8080722.4°C953.8hPa74.66%3078ppm2024-06-14 17:24:56
18567weather8080722.3°C953.9hPa74.69%3086ppm2024-06-14 17:09:34
18566weather8080722.4°C954.15hPa74.93%3278ppm2024-06-14 16:38:50
18565weather8080722.2°C954.38hPa78.85%650ppm2024-06-14 16:08:05
18564weather8080722.1°C954.38hPa74.83%2894ppm2024-06-14 15:52:42
18563weather8080722.2°C954.66hPa74.84%3009ppm2024-06-14 15:37:19
18562weather8080722.4°C955.31hPa73.88%2904ppm2024-06-14 15:06:34
18561weather8080722.3°C955.72hPa73.96%2902ppm2024-06-14 14:35:49
18560weather8080722.1°C955.9hPa74.22%2902ppm2024-06-14 14:05:05
18559weather8080722.2°C956.01hPa78.08%597ppm2024-06-14 13:34:20
18558weather8080722.3°C955.95hPa78.05%641ppm2024-06-14 13:18:57
18557weather8080722.2°C956.11hPa77.73%617ppm2024-06-14 13:03:33
18556weather8080722.2°C956.09hPa77.46%574ppm2024-06-14 12:48:10
18555weather8080722.2°C955.88hPa77.27%649ppm2024-06-14 12:32:47
18554weather8080722.4°C955.83hPa73.49%2866ppm2024-06-14 12:17:24
18553weather8080722.3°C955.78hPa73.47%2925ppm2024-06-14 12:02:01
18552weather8080722.3°C955.49hPa77.54%602ppm2024-06-14 11:31:16
18551weather8080722.3°C955.3hPa77.58%536ppm2024-06-14 11:15:53
18550weather8080722.3°C955.1hPa77.48%563ppm2024-06-14 11:00:30
18549weather8080722.3°C954.91hPa77.42%623ppm2024-06-14 10:45:07
18548weather8080722.2°C954.87hPa73.49%2959ppm2024-06-14 10:29:44
18547weather8080722.3°C954.81hPa73.49%2905ppm2024-06-14 10:14:20
18546weather8080722.2°C954.52hPa73.55%2999ppm2024-06-14 09:43:35
18545weather8080722.1°C954.2hPa73.97%3220ppm2024-06-14 09:12:52
18544weather8080722°C954.17hPa74.38%3122ppm2024-06-14 08:42:07
18543weather8080722°C954.27hPa74.38%3063ppm2024-06-14 08:26:44
18542weather8080721.9°C954.31hPa75.1%3203ppm2024-06-14 07:55:59
18541weather8080721.9°C954.3hPa76.22%3465ppm2024-06-14 07:25:14
18540weather8080721.8°C954.3hPa77.45%587ppm2024-06-14 06:54:29
18539weather8080721.7°C954.35hPa73.67%2767ppm2024-06-14 06:39:06
18538weather8080721.7°C954.3hPa73.66%2801ppm2024-06-14 06:23:44
18537weather8080721.6°C954.67hPa73.83%2787ppm2024-06-14 05:53:00
18536weather8080721.6°C954.69hPa73.98%2797ppm2024-06-14 05:22:14
18535weather8080721.6°C954.81hPa77.78%575ppm2024-06-14 04:51:28
18534weather8080721.6°C954.73hPa77.73%586ppm2024-06-14 04:36:05
18533weather8080721.6°C954.69hPa77.69%524ppm2024-06-14 04:20:41
18532weather8080721.6°C954.86hPa77.64%501ppm2024-06-14 04:05:19
18531weather8080721.7°C954.94hPa77.63%527ppm2024-06-14 03:49:55
18530weather8080721.6°C955hPa77.64%560ppm2024-06-14 03:34:32
18529weather8080721.6°C955.15hPa77.61%525ppm2024-06-14 03:19:08
18528weather8080721.7°C955.28hPa77.56%553ppm2024-06-14 03:03:44
18527weather8080721.7°C955.45hPa77.52%564ppm2024-06-14 02:48:20
18526weather8080721.7°C955.45hPa77.54%551ppm2024-06-14 02:32:56
18525weather8080721.7°C955.69hPa77.51%581ppm2024-06-14 02:17:33
18524weather8080721.7°C955.88hPa77.54%631ppm2024-06-14 02:02:09
18523weather8080721.7°C956hPa77.34%489ppm2024-06-14 01:46:46
18522weather8080721.8°C956.1hPa77.31%511ppm2024-06-14 01:31:22
18521weather8080721.8°C956.14hPa77.25%516ppm2024-06-14 01:15:59
18520weather8080721.8°C956.27hPa77.21%470ppm2024-06-14 01:00:36
18519weather8080721.8°C956.44hPa77.16%534ppm2024-06-14 00:45:12
18518weather8080721.8°C956.4hPa77.12%554ppm2024-06-14 00:29:48
18517weather8080721.8°C956.45hPa77.11%580ppm2024-06-14 00:14:25
18516weather8080721.9°C956.44hPa77.11%571ppm2024-06-13 23:59:01
18515weather8080721.9°C956.62hPa76.86%568ppm2024-06-13 23:43:38
18514weather8080721.9°C956.64hPa76.8%528ppm2024-06-13 23:28:14
18513weather8080721.9°C956.71hPa76.79%623ppm2024-06-13 23:12:50
18512weather8080722°C956.85hPa76.78%620ppm2024-06-13 22:57:28
18511weather8080722°C956.93hPa76.43%619ppm2024-06-13 22:42:04
18510weather8080722°C956.98hPa76.02%660ppm2024-06-13 22:26:41
18509weather8080722°C957.08hPa75.55%571ppm2024-06-13 22:11:18
18508weather8080722°C957.2hPa71.75%2898ppm2024-06-13 21:55:56
18507weather8080722.1°C957.38hPa71.75%2906ppm2024-06-13 21:40:32
18506weather8080722.1°C957.29hPa71.21%2789ppm2024-06-13 21:09:47
18505weather8080722.1°C957.21hPa71.31%2723ppm2024-06-13 20:39:00
18504weather8080722.1°C957.18hPa71.21%2446ppm2024-06-13 20:08:16
18503weather8080722.1°C957.06hPa71.7%2525ppm2024-06-13 19:37:32
18502weather8080722.1°C956.92hPa76.28%414ppm2024-06-13 19:06:47
18501weather8080722.1°C956.89hPa76.23%518ppm2024-06-13 18:51:23
18500weather8080722.2°C956.91hPa72.49%2703ppm2024-06-13 18:35:59
18499weather8080722.2°C956.98hPa72.51%2686ppm2024-06-13 18:20:36
18498weather8080722.2°C957.04hPa73.34%2798ppm2024-06-13 17:49:53
18497weather8080722.3°C957.3hPa74.44%2845ppm2024-06-13 17:19:08
18496weather8080722.4°C957.45hPa74.41%3089ppm2024-06-13 17:03:45
18495weather8080722.4°C957.53hPa75.9%777ppm2024-06-13 16:33:01
18494weather8080722.4°C957.48hPa75.56%569ppm2024-06-13 16:17:37
18493weather8080722.3°C957.47hPa75.57%550ppm2024-06-13 16:02:14
18492weather8080722.2°C957.57hPa74.91%433ppm2024-06-13 15:46:51
18491weather8080722.2°C957.57hPa73.93%374ppm2024-06-13 15:31:28
18490weather8080722.1°C957.65hPa72.44%283ppm2024-06-13 15:16:04
18489weather8080722°C957.86hPa72.03%313ppm2024-06-13 15:00:42
18488weather8080722.2°C957.76hPa68.08%2392ppm2024-06-13 14:45:18
18487weather8080722.1°C957.92hPa68.06%2424ppm2024-06-13 14:29:55
18486weather8080722.1°C958.04hPa68.41%2312ppm2024-06-13 13:59:11
18485weather8080722°C958hPa68.39%2341ppm2024-06-13 13:43:47
18484weather8080722.1°C958.22hPa68.44%2402ppm2024-06-13 13:13:03
18483weather8080722.1°C958.3hPa69.84%2474ppm2024-06-13 12:42:18
18482weather8080722°C958.35hPa69.69%2529ppm2024-06-13 12:11:33
18481weather8080721.8°C958.15hPa76.33%581ppm2024-06-13 11:40:48
18480weather8080722°C958.17hPa76.17%669ppm2024-06-13 11:25:26
18479weather8080722.3°C958.29hPa78.41%889ppm2024-06-13 11:10:03
18478weather8080722.2°C958.28hPa78.04%874ppm2024-06-13 10:54:40
18477weather8080722.3°C958.33hPa74.29%3336ppm2024-06-13 10:39:16
18476weather8080722.3°C958.34hPa74.28%3291ppm2024-06-13 10:23:53
18475weather8080722.2°C958.34hPa74.01%3223ppm2024-06-13 09:53:09
18474weather8080722.1°C958.29hPa74.04%3170ppm2024-06-13 09:37:45
18473weather8080722.1°C958.17hPa72.89%2892ppm2024-06-13 09:07:01
18472weather8080722°C957.97hPa72.3%2697ppm2024-06-13 08:36:17
18471weather8080721.8°C957.84hPa72.32%2588ppm2024-06-13 08:05:32
18470weather8080721.4°C957.75hPa72.86%2306ppm2024-06-13 07:34:48
18469weather8080721.4°C957.51hPa72.94%2240ppm2024-06-13 07:04:02
18468weather8080721.4°C957.47hPa72.9%2284ppm2024-06-13 06:48:40
18467weather8080721.4°C957.32hPa73.08%2301ppm2024-06-13 06:17:55
18466weather8080721.4°C957.02hPa73.01%2159ppm2024-06-13 05:47:10
18465weather8080721.5°C957.03hPa73.04%2280ppm2024-06-13 05:31:48
18464weather8080721.5°C956.81hPa73.04%2287ppm2024-06-13 05:01:03
18463weather8080721.6°C956.89hPa73.01%2299ppm2024-06-13 04:30:18
18462weather8080721.6°C956.8hPa76.87%227ppm2024-06-13 03:59:33
18461weather8080721.6°C956.81hPa76.74%174ppm2024-06-13 03:44:09
18460weather8080721.6°C956.85hPa76.57%182ppm2024-06-13 03:28:46
18459weather8080721.7°C957hPa72.86%2277ppm2024-06-13 03:13:22
18458weather8080721.7°C957.04hPa72.91%2278ppm2024-06-13 02:57:59
18457weather8080721.7°C956.86hPa73%2270ppm2024-06-13 02:27:14
18456weather8080721.8°C957hPa77.08%186ppm2024-06-13 01:56:29
18455weather8080721.8°C956.94hPa77.24%191ppm2024-06-13 01:41:06
18454weather8080721.8°C957.22hPa77.37%170ppm2024-06-13 01:25:42
18453weather8080721.8°C957.31hPa77.55%240ppm2024-06-13 01:10:19
18452weather8080721.9°C957.38hPa77.79%243ppm2024-06-13 00:54:55
18451weather8080721.9°C957.44hPa77.98%226ppm2024-06-13 00:39:32
18450weather8080721.9°C957.49hPa78.23%315ppm2024-06-13 00:24:10
18449weather8080722°C957.49hPa78.32%272ppm2024-06-13 00:08:47
18448weather8080722°C957.54hPa74.8%2485ppm2024-06-12 23:53:24
18447weather8080722°C957.51hPa74.85%2380ppm2024-06-12 23:38:01
18446weather8080722.1°C957.33hPa75.6%2458ppm2024-06-12 23:07:16
18445weather8080722°C957.37hPa77.05%2598ppm2024-06-12 22:36:31
18444weather8080722°C957.09hPa76.43%395ppm2024-06-12 22:05:47
18443weather8080721.9°C957.29hPa76.24%502ppm2024-06-12 21:50:23
18442weather8080721.8°C957.06hPa74.66%364ppm2024-06-12 21:35:00
18441weather8080721.7°C956.84hPa73.41%271ppm2024-06-12 21:19:37
18440weather8080721.5°C956.71hPa65.45%1897ppm2024-06-12 21:04:13
18439weather8080720.4°C956.75hPa65.47%2195ppm2024-06-12 20:48:49
18438weather8080720.8°C956.66hPa65.79%2252ppm2024-06-12 20:18:04
18437weather8080722.9°C956.34hPa76.73%3083ppm2024-06-12 19:47:21
18436weather8080722.8°C956.49hPa77.33%3219ppm2024-06-12 19:16:36
18435weather8080722.7°C956.31hPa81.54%968ppm2024-06-12 18:45:50
18434weather8080722.7°C956.3hPa81.77%1008ppm2024-06-12 18:30:26
18433weather8080722.7°C956.44hPa81.65%1000ppm2024-06-12 18:15:03
18432weather8080722.7°C956.46hPa81.65%1051ppm2024-06-12 17:59:39
18431weather8080722.7°C956.43hPa81.6%992ppm2024-06-12 17:44:16
18430weather8080722.8°C956.48hPa79.98%925ppm2024-06-12 17:28:53
18429weather8080722.7°C956.49hPa74.79%2890ppm2024-06-12 17:13:30
18428weather8080722.9°C956.64hPa74.76%3190ppm2024-06-12 16:58:07
18427weather8080722.8°C956.73hPa74.07%3140ppm2024-06-12 16:27:22
18426weather8080722.8°C956.98hPa74.82%3405ppm2024-06-12 15:56:38
18425weather8080722.8°C957.04hPa74.61%3248ppm2024-06-12 15:25:53
18424weather8080722.8°C957.06hPa74.27%3163ppm2024-06-12 14:55:06
18423weather8080722.9°C957.29hPa74.34%3286ppm2024-06-12 14:24:21
18422weather8080722.7°C957.46hPa74.36%2932ppm2024-06-12 13:53:36
18421weather8080722.7°C957.61hPa74.38%2998ppm2024-06-12 13:38:12
18420weather8080722.5°C957.75hPa78.08%532ppm2024-06-12 13:07:26
18419weather8080722.5°C958.02hPa74.46%2907ppm2024-06-12 12:52:02
18418weather8080722.6°C957.99hPa74.46%2942ppm2024-06-12 12:36:39
18417weather8080722.6°C958.27hPa81.16%728ppm2024-06-12 12:05:54
18416weather8080722.7°C958.28hPa81.32%723ppm2024-06-12 11:50:30
18415weather8080722.6°C958.24hPa81.11%802ppm2024-06-12 11:35:06
18414weather8080722.7°C958.29hPa81.67%963ppm2024-06-12 11:19:44
18413weather8080722.6°C958.17hPa81.51%953ppm2024-06-12 11:04:20
18412weather8080722.7°C958.16hPa81.38%816ppm2024-06-12 10:48:57
18411weather8080722.7°C958.1hPa81.55%793ppm2024-06-12 10:33:33
18410weather8080722.8°C958.15hPa82.66%732ppm2024-06-12 10:18:10
18409weather8080722.8°C958.05hPa78.93%541ppm2024-06-12 10:02:47
18408weather8080722.7°C958.14hPa75.36%2782ppm2024-06-12 09:47:24
18407weather8080722.6°C958.13hPa75.38%2869ppm2024-06-12 09:32:00
18406weather8080722.4°C958.2hPa76.09%2619ppm2024-06-12 09:01:16
18405weather8080722.4°C958.25hPa73.4%2624ppm2024-06-12 08:30:32
18404weather8080722.2°C958.32hPa73.08%2380ppm2024-06-12 07:59:47
18403weather8080722.1°C958.21hPa73.19%2322ppm2024-06-12 07:29:02
18402weather8080722.1°C958.11hPa73.09%2311ppm2024-06-12 06:58:17
18401weather8080722.1°C957.98hPa73.28%2315ppm2024-06-12 06:27:34
18400weather8080722°C957.85hPa77.16%189ppm2024-06-12 05:56:48
18399weather8080722°C957.87hPa77.12%174ppm2024-06-12 05:41:25
18398weather8080722°C957.87hPa77.17%202ppm2024-06-12 05:26:02
18397weather8080722°C957.82hPa77.13%198ppm2024-06-12 05:10:39
18396weather8080722.1°C957.78hPa77.05%187ppm2024-06-12 04:55:15
18395weather8080722.1°C957.68hPa75.03%1937ppm2024-06-12 04:39:52
18394weather8080722.1°C957.81hPa73.41%2338ppm2024-06-12 04:24:29
18393weather8080722.2°C957.76hPa73.42%2338ppm2024-06-12 04:09:05
18392weather8080722.3°C957.82hPa73.6%2362ppm2024-06-12 03:38:20
18391weather8080722.3°C957.72hPa73.81%2377ppm2024-06-12 03:07:33
18390weather8080722.2°C957.73hPa78.09%214ppm2024-06-12 02:36:48
18389weather8080722.3°C957.81hPa78.22%312ppm2024-06-12 02:21:23
18388weather8080722.3°C957.86hPa78.43%346ppm2024-06-12 02:06:00
18387weather8080722.3°C957.89hPa78.57%334ppm2024-06-12 01:50:36
18386weather8080722.4°C957.79hPa78.72%375ppm2024-06-12 01:35:14
18385weather8080722.4°C957.79hPa78.9%446ppm2024-06-12 01:19:49
18384weather8080722.4°C957.65hPa78.72%436ppm2024-06-12 01:04:26
18383weather8080722.4°C957.76hPa78.77%413ppm2024-06-12 00:49:02
18382weather8080722.4°C957.88hPa78.78%420ppm2024-06-12 00:33:39
18381weather8080722.4°C957.92hPa78.71%441ppm2024-06-12 00:18:16
18380weather8080722.4°C957.74hPa78.61%423ppm2024-06-12 00:02:53
18379weather8080722.4°C957.8hPa78.32%337ppm2024-06-11 23:47:29
18378weather8080722.4°C957.67hPa78.24%385ppm2024-06-11 23:32:07
18377weather8080722.4°C957.71hPa78.23%420ppm2024-06-11 23:16:43
18376weather8080722.3°C957.34hPa78.65%400ppm2024-06-11 23:01:19
18375weather8080722.4°C957.29hPa78.56%463ppm2024-06-11 22:45:56
18374weather8080722.4°C957.28hPa75.11%2841ppm2024-06-11 22:30:32
18373weather8080722.6°C957.36hPa75.1%2810ppm2024-06-11 22:15:10
18372weather8080722.5°C957.25hPa79.9%708ppm2024-06-11 21:44:25
18371weather8080722.7°C957.38hPa79.84%765ppm2024-06-11 21:29:03
18370weather8080722.8°C957.04hPa79.93%810ppm2024-06-11 21:13:39
18369weather8080722.8°C956.73hPa80.58%862ppm2024-06-11 20:58:15
18368weather8080722.9°C956.64hPa81.29%921ppm2024-06-11 20:42:52
18367weather8080722.9°C956.71hPa77.07%2882ppm2024-06-11 20:27:28
18366weather8080722.9°C956.59hPa77.02%3271ppm2024-06-11 20:12:05

Nasa satellite image

via Nasa API updated daily and modifications with computer vision https://api.nasa.gov/planetary/earth/imagery? https://api.nasa.gov/planetary/earth/imagery?